createdAt,value
2022-12-29T00:00:08.115Z,5.20
2022-12-29T00:02:41.555Z,6.53
2022-12-29T00:05:08.476Z,5.75
2022-12-29T00:07:35.412Z,6.35
2022-12-29T00:10:02.152Z,7.35
2022-12-29T00:12:48.848Z,7.35
2022-12-29T00:15:34.210Z,5.82
2022-12-29T00:18:01.173Z,5.78
2022-12-29T00:20:46.784Z,6.10
2022-12-29T00:23:32.251Z,6.68
2022-12-29T00:26:17.623Z,6.32
2022-12-29T00:29:03.153Z,7.18
2022-12-29T00:31:59.294Z,6.60
2022-12-29T00:34:44.548Z,7.30
2022-12-29T00:37:11.314Z,6.88
2022-12-29T00:39:56.368Z,5.00
2022-12-29T00:43:01.538Z,7.03
2022-12-29T00:45:28.210Z,7.78
2022-12-29T00:47:54.999Z,5.45
2022-12-29T00:50:21.668Z,7.38
2022-12-29T00:52:50.001Z,6.00
2022-12-29T00:55:17.467Z,5.20
2022-12-29T00:57:45.514Z,5.63
2022-12-29T01:00:12.803Z,6.03
2022-12-29T01:05:06.383Z,6.47
2022-12-29T01:07:33.919Z,6.22
2022-12-29T01:10:11.077Z,5.95
2022-12-29T01:12:45.710Z,5.85
2022-12-29T01:15:15.183Z,6.13
2022-12-29T01:17:42.513Z,6.47
2022-12-29T01:20:09.789Z,6.35
2022-12-29T01:25:04.355Z,5.90
2022-12-29T01:27:31.094Z,6.05
2022-12-29T01:29:58.194Z,6.40
2022-12-29T01:32:25.192Z,6.07
2022-12-29T01:34:51.829Z,6.20
2022-12-29T01:37:18.525Z,5.75
2022-12-29T01:39:45.217Z,6.45
2022-12-29T01:42:23.153Z,6.15
2022-12-29T01:44:52.674Z,5.78
2022-12-29T01:47:39.538Z,5.93
2022-12-29T01:50:18.510Z,6.18
2022-12-29T01:52:55.686Z,5.60
2022-12-29T01:55:23.282Z,5.57
2022-12-29T01:57:53.928Z,6.20
2022-12-29T02:00:20.792Z,5.45
2022-12-29T02:02:53.869Z,5.78
2022-12-29T02:05:35.619Z,5.97
2022-12-29T02:08:02.843Z,5.65
2022-12-29T02:10:32.358Z,6.43
2022-12-29T02:12:59.267Z,5.68
2022-12-29T02:15:54.665Z,5.90
2022-12-29T02:18:34.525Z,5.97
2022-12-29T02:21:23.396Z,5.32
2022-12-29T02:24:13.143Z,5.90
2022-12-29T02:26:58.485Z,5.32
2022-12-29T02:29:55.440Z,6.07
2022-12-29T02:32:51.451Z,4.95
2022-12-29T02:35:40.878Z,5.93
2022-12-29T02:38:38.215Z,5.43
2022-12-29T02:41:48.577Z,6.03
2022-12-29T02:44:32.251Z,6.35
2022-12-29T02:47:15.470Z,5.65
2022-12-29T02:49:54.554Z,5.80
2022-12-29T02:52:28.669Z,6.30
2022-12-29T02:54:56.213Z,5.85
2022-12-29T02:57:22.869Z,5.05
2022-12-29T02:59:55.171Z,4.20
2022-12-29T03:02:27.684Z,5.88
2022-12-29T03:05:24.278Z,4.93
2022-12-29T03:08:05.032Z,5.60
2022-12-29T03:10:56.148Z,5.53
2022-12-29T03:14:04.696Z,5.70
2022-12-29T03:16:46.792Z,5.50
2022-12-29T03:19:31.899Z,5.25
2022-12-29T03:22:23.211Z,5.35
2022-12-29T03:25:02.207Z,5.60
2022-12-29T03:27:33.519Z,5.15
2022-12-29T03:30:04.294Z,5.00
2022-12-29T03:32:42.915Z,5.97
2022-12-29T03:35:14.231Z,4.22
2022-12-29T03:37:50.499Z,5.82
2022-12-29T03:40:19.702Z,5.82
2022-12-29T03:42:48.666Z,5.57
2022-12-29T03:45:15.625Z,5.05
2022-12-29T03:47:42.421Z,5.18
2022-12-29T03:50:09.653Z,5.30
2022-12-29T03:52:40.277Z,6.03
2022-12-29T03:55:07.842Z,4.80
2022-12-29T03:57:34.621Z,4.72
2022-12-29T04:00:06.912Z,5.03
2022-12-29T04:02:42.558Z,4.43
2022-12-29T04:05:13.916Z,4.50
2022-12-29T04:07:41.055Z,5.38
2022-12-29T04:10:08.474Z,5.20
2022-12-29T04:12:35.968Z,5.30
2022-12-29T04:15:03.023Z,4.85
2022-12-29T04:20:16.700Z,4.60
2022-12-29T04:22:43.504Z,4.10
2022-12-29T04:25:10.680Z,4.15
2022-12-29T04:27:38.876Z,3.88
2022-12-29T04:30:41.061Z,3.65
2022-12-29T04:33:14.881Z,3.80
2022-12-29T04:35:44.269Z,3.17
2022-12-29T04:38:12.198Z,3.78
2022-12-29T04:40:41.360Z,3.42
2022-12-29T04:43:10.899Z,3.53
2022-12-29T04:45:57.322Z,3.42
2022-12-29T04:48:36.504Z,4.25
2022-12-29T04:51:14.527Z,4.20
2022-12-29T04:53:42.389Z,3.88
2022-12-29T04:56:10.059Z,3.50
2022-12-29T04:58:37.963Z,3.10
2022-12-29T05:01:05.689Z,3.63
2022-12-29T05:03:32.478Z,3.60
2022-12-29T05:05:59.797Z,3.60
2022-12-29T05:08:28.606Z,3.70
2022-12-29T05:10:58.491Z,3.50
2022-12-29T05:13:25.554Z,4.05
2022-12-29T05:15:54.051Z,4.28
2022-12-29T05:18:22.966Z,3.85
2022-12-29T05:20:50.765Z,3.53
2022-12-29T05:23:19.732Z,4.05
2022-12-29T05:25:54.229Z,3.70
2022-12-29T05:28:31.240Z,4.13
2022-12-29T05:31:03.614Z,4.13
2022-12-29T05:33:31.189Z,4.32
2022-12-29T05:35:58.243Z,4.10
2022-12-29T05:38:24.973Z,3.80
2022-12-29T05:40:51.812Z,4.68
2022-12-29T05:43:53.918Z,5.20
2022-12-29T05:46:52.834Z,5.97
2022-12-29T05:49:43.527Z,4.57
2022-12-29T05:52:21.111Z,4.88
2022-12-29T05:54:47.893Z,4.30
2022-12-29T05:57:18.309Z,4.88
2022-12-29T05:59:49.861Z,6.60
2022-12-29T06:02:16.799Z,5.93
2022-12-29T06:04:44.240Z,4.65
2022-12-29T06:07:11.006Z,3.50
2022-12-29T06:09:43.399Z,4.47
2022-12-29T06:12:10.682Z,5.80
2022-12-29T06:14:39.129Z,4.57
2022-12-29T06:19:34.384Z,4.82
2022-12-29T06:22:01.152Z,5.10
2022-12-29T06:24:28.821Z,5.78
2022-12-29T06:26:55.495Z,4.30
2022-12-29T06:29:22.207Z,4.07
2022-12-29T06:31:50.263Z,3.92
2022-12-29T06:34:17.095Z,4.25
2022-12-29T06:36:44.085Z,4.05
2022-12-29T06:39:11.763Z,4.50
2022-12-29T06:41:38.856Z,4.88
2022-12-29T06:44:40.820Z,3.55
2022-12-29T06:47:10.425Z,3.80
2022-12-29T06:49:37.100Z,3.53
2022-12-29T06:52:10.757Z,3.35
2022-12-29T06:54:39.696Z,3.40
2022-12-29T06:57:06.426Z,3.15
2022-12-29T06:59:33.074Z,3.58
2022-12-29T07:01:59.854Z,2.85
2022-12-29T07:04:26.726Z,3.42
2022-12-29T07:06:53.368Z,2.55
2022-12-29T07:09:20.541Z,2.60
2022-12-29T07:11:47.359Z,2.92
2022-12-29T07:14:14.100Z,3.90
2022-12-29T07:16:40.952Z,3.58
2022-12-29T07:19:07.651Z,5.05
2022-12-29T07:21:34.337Z,3.20
2022-12-29T07:24:00.982Z,3.13
2022-12-29T07:26:32.940Z,2.47
2022-12-29T07:29:03.645Z,2.78
2022-12-29T07:31:30.514Z,2.78
2022-12-29T07:33:57.283Z,2.13
2022-12-29T07:36:26.071Z,2.60
2022-12-29T07:38:56.230Z,3.15
2022-12-29T07:41:23.135Z,3.33
2022-12-29T07:43:49.894Z,3.10
2022-12-29T07:46:53.790Z,3.90
2022-12-29T07:49:23.775Z,2.65
2022-12-29T07:51:50.587Z,3.55
2022-12-29T07:54:19.254Z,3.50
2022-12-29T07:56:46.804Z,3.78
2022-12-29T08:01:40.418Z,4.20
2022-12-29T08:04:07.448Z,3.65
2022-12-29T08:06:34.202Z,4.32
2022-12-29T08:09:11.049Z,3.28
2022-12-29T08:11:41.666Z,3.97
2022-12-29T08:14:08.455Z,3.60
2022-12-29T08:16:35.623Z,2.63
2022-12-29T08:21:29.730Z,4.10
2022-12-29T08:23:56.549Z,4.90
2022-12-29T08:26:23.283Z,4.55
2022-12-29T08:28:53.644Z,5.35
2022-12-29T08:31:20.639Z,4.80
2022-12-29T08:33:47.395Z,4.88
2022-12-29T08:36:14.143Z,4.30
2022-12-29T08:38:40.838Z,4.43
2022-12-29T08:41:07.721Z,3.63
2022-12-29T08:43:34.419Z,4.47
2022-12-29T08:46:01.624Z,4.50
2022-12-29T08:48:28.433Z,3.80
2022-12-29T08:50:55.383Z,2.88
2022-12-29T08:53:22.172Z,4.00
2022-12-29T08:56:00.852Z,3.45
2022-12-29T08:58:33.757Z,5.80
2022-12-29T09:01:00.870Z,4.80
2022-12-29T09:06:16.685Z,3.80
2022-12-29T09:08:44.042Z,3.78
2022-12-29T09:13:38.839Z,4.03
2022-12-29T09:16:06.515Z,3.80
2022-12-29T09:18:33.300Z,3.42
2022-12-29T09:23:29.125Z,3.50
2022-12-29T09:25:56.053Z,3.53
2022-12-29T09:28:23.551Z,3.60
2022-12-29T09:30:51.123Z,3.20
2022-12-29T09:33:18.869Z,2.67
2022-12-29T09:35:50.698Z,2.78
2022-12-29T09:38:17.980Z,2.72
2022-12-29T09:40:52.455Z,2.50
2022-12-29T09:43:37.931Z,2.40
2022-12-29T09:46:16.677Z,2.40
2022-12-29T09:48:48.094Z,2.20
2022-12-29T09:51:18.255Z,2.00
2022-12-29T09:53:52.234Z,1.98
2022-12-29T09:56:22.648Z,1.77
2022-12-29T09:59:08.201Z,2.17
2022-12-29T10:01:45.329Z,2.22
2022-12-29T10:04:12.260Z,1.88
2022-12-29T10:10:16.089Z,2.35
2022-12-29T10:13:09.209Z,2.20
2022-12-29T10:16:00.260Z,2.97
2022-12-29T10:19:05.987Z,3.15
2022-12-29T10:21:58.614Z,2.63
2022-12-29T10:24:27.612Z,2.60
2022-12-29T10:26:57.240Z,2.67
2022-12-29T10:29:38.809Z,2.17
2022-12-29T10:32:37.174Z,2.92
2022-12-29T10:35:19.772Z,2.17
2022-12-29T10:38:00.284Z,2.85
2022-12-29T10:40:34.705Z,2.22
2022-12-29T10:43:06.066Z,2.25
2022-12-29T10:45:35.049Z,2.00
2022-12-29T10:48:12.888Z,2.42
2022-12-29T10:50:43.828Z,2.25
2022-12-29T10:53:20.094Z,2.15
2022-12-29T10:55:47.788Z,1.80
2022-12-29T10:58:15.971Z,2.85
2022-12-29T11:00:49.979Z,1.77
2022-12-29T11:03:32.066Z,1.70
2022-12-29T11:06:11.064Z,1.75
2022-12-29T11:08:42.123Z,1.80
2022-12-29T11:11:10.557Z,1.67
2022-12-29T11:14:18.809Z,1.73
2022-12-29T11:16:46.194Z,2.88
2022-12-29T11:19:24.083Z,1.88
2022-12-29T11:21:51.025Z,1.90
2022-12-29T11:24:22.201Z,1.33
2022-12-29T11:26:51.718Z,2.28
2022-12-29T11:29:21.370Z,2.03
2022-12-29T11:31:51.048Z,2.08
2022-12-29T11:34:28.638Z,1.80
2022-12-29T11:37:01.954Z,1.90
2022-12-29T11:39:55.120Z,1.92
2022-12-29T11:42:38.321Z,1.90
2022-12-29T11:45:29.929Z,2.13
2022-12-29T11:48:06.401Z,2.10
2022-12-29T11:50:34.864Z,2.15
2022-12-29T11:53:12.212Z,2.30
2022-12-29T11:55:38.977Z,2.20
2022-12-29T11:58:06.161Z,2.97
2022-12-29T12:00:40.590Z,2.42
2022-12-29T12:03:16.360Z,3.08
2022-12-29T12:05:53.509Z,2.20
2022-12-29T12:08:41.993Z,1.93
2022-12-29T12:11:21.642Z,2.20
2022-12-29T12:14:07.772Z,3.20
2022-12-29T12:17:03.129Z,2.13
2022-12-29T12:19:41.011Z,2.28
2022-12-29T12:25:06.371Z,2.20
2022-12-29T12:27:42.811Z,2.97
2022-12-29T12:30:24.857Z,2.05
2022-12-29T12:32:55.971Z,2.08
2022-12-29T12:35:35.534Z,2.70
2022-12-29T12:38:27.323Z,2.17
2022-12-29T12:40:59.912Z,2.10
2022-12-29T12:43:35.434Z,1.80
2022-12-29T12:46:20.717Z,3.78
2022-12-29T12:49:14.262Z,2.63
2022-12-29T12:52:05.293Z,3.22
2022-12-29T12:54:44.314Z,2.95
2022-12-29T12:57:55.637Z,1.55
2022-12-29T13:00:24.292Z,1.95
2022-12-29T13:03:10.159Z,1.90
2022-12-29T13:06:05.338Z,1.80
2022-12-29T13:09:12.299Z,2.42
2022-12-29T13:11:59.533Z,1.90
2022-12-29T13:15:04.374Z,1.70
2022-12-29T13:17:37.274Z,1.95
2022-12-29T13:20:30.469Z,2.38
2022-12-29T13:23:32.350Z,2.38
2022-12-29T13:26:05.020Z,2.20
2022-12-29T13:29:12.911Z,2.00
2022-12-29T13:32:15.053Z,1.90
2022-12-29T13:34:58.026Z,2.05
2022-12-29T13:37:28.575Z,2.20
2022-12-29T13:40:04.294Z,1.98
2022-12-29T13:42:31.274Z,1.63
2022-12-29T13:45:04.937Z,2.03
2022-12-29T13:47:55.431Z,2.15
2022-12-29T13:50:25.681Z,3.40
2022-12-29T13:53:33.842Z,2.38
2022-12-29T13:56:21.925Z,5.90
2022-12-29T13:59:17.796Z,8.35
2022-12-29T14:02:10.702Z,5.95
2022-12-29T14:04:57.409Z,3.75
2022-12-29T14:07:24.150Z,5.57
2022-12-29T14:09:56.071Z,6.72
2022-12-29T14:12:28.476Z,8.00
2022-12-29T14:14:55.397Z,4.60
2022-12-29T14:17:22.484Z,3.53
2022-12-29T14:19:54.711Z,3.38
2022-12-29T14:22:33.288Z,3.97
2022-12-29T14:25:01.251Z,4.07
2022-12-29T14:27:30.670Z,4.10
2022-12-29T14:29:57.441Z,3.75
2022-12-29T14:32:27.168Z,4.88
2022-12-29T14:34:55.276Z,5.07
2022-12-29T14:37:30.508Z,5.20
2022-12-29T14:40:15.742Z,4.55
2022-12-29T14:42:43.266Z,2.80
2022-12-29T14:45:15.701Z,5.30
2022-12-29T14:47:51.045Z,6.22
2022-12-29T14:50:43.511Z,8.88
2022-12-29T14:53:44.862Z,6.95
2022-12-29T14:56:27.376Z,5.10
2022-12-29T14:59:10.535Z,5.65
2022-12-29T15:01:49.471Z,4.10
2022-12-29T15:04:20.347Z,3.50
2022-12-29T15:06:49.236Z,3.17
2022-12-29T15:09:29.115Z,5.50
2022-12-29T15:12:02.229Z,3.67
2022-12-29T15:14:32.727Z,4.00
2022-12-29T15:17:00.079Z,3.97
2022-12-29T15:19:28.026Z,4.07
2022-12-29T15:21:56.482Z,3.97
2022-12-29T15:24:24.648Z,3.38
2022-12-29T15:26:53.667Z,2.75
2022-12-29T15:29:37.972Z,2.67
2022-12-29T15:32:18.671Z,2.70
2022-12-29T15:34:47.504Z,2.92
2022-12-29T15:37:37.999Z,3.30
2022-12-29T15:40:05.516Z,3.50
2022-12-29T15:42:52.385Z,4.50
2022-12-29T15:45:19.279Z,4.18
2022-12-29T15:47:50.104Z,8.00
2022-12-29T15:50:38.066Z,5.68
2022-12-29T15:53:12.322Z,3.97
2022-12-29T15:55:42.376Z,4.00
2022-12-29T15:58:25.092Z,4.00
2022-12-29T16:00:55.112Z,3.88
2022-12-29T16:03:23.395Z,3.38
2022-12-29T16:06:32.998Z,3.88
2022-12-29T16:09:05.079Z,4.53
2022-12-29T16:11:38.877Z,7.63
2022-12-29T16:14:16.695Z,5.82
2022-12-29T16:16:45.788Z,6.95
2022-12-29T16:19:18.637Z,11.52
2022-12-29T16:21:46.501Z,4.40
2022-12-29T16:24:17.751Z,6.07
2022-12-29T16:26:50.327Z,5.22
2022-12-29T16:29:17.653Z,3.80
2022-12-29T16:34:46.138Z,7.25
2022-12-29T16:37:30.692Z,9.20
2022-12-29T16:40:17.463Z,5.72
2022-12-29T16:42:50.606Z,4.72
2022-12-29T16:45:21.535Z,4.93
2022-12-29T16:48:09.679Z,5.82
2022-12-29T16:50:38.756Z,3.30
2022-12-29T16:53:07.305Z,2.72
2022-12-29T16:55:34.257Z,3.78
2022-12-29T16:58:01.606Z,4.88
2022-12-29T17:02:59.960Z,5.00
2022-12-29T17:05:26.860Z,4.80
2022-12-29T17:07:53.815Z,5.75
2022-12-29T17:10:20.584Z,4.93
2022-12-29T17:12:49.503Z,4.78
2022-12-29T17:15:28.164Z,4.47
2022-12-29T17:17:56.581Z,3.85
2022-12-29T17:20:29.299Z,3.20
2022-12-29T17:22:56.984Z,4.50
2022-12-29T17:25:42.399Z,6.25
2022-12-29T17:28:25.504Z,5.57
2022-12-29T17:30:54.707Z,5.00
2022-12-29T17:33:21.706Z,6.85
2022-12-29T17:35:53.371Z,8.52
2022-12-29T17:38:29.176Z,5.97
2022-12-29T17:40:56.078Z,5.78
2022-12-29T17:43:22.973Z,6.28
2022-12-29T17:45:54.364Z,6.90
2022-12-29T17:48:22.101Z,6.80
2022-12-29T17:50:51.193Z,6.50
2022-12-29T17:53:22.708Z,7.72
2022-12-29T17:55:49.384Z,9.95
2022-12-29T17:58:18.995Z,6.68
2022-12-29T18:00:47.623Z,6.30
2022-12-29T18:03:16.757Z,5.95
2022-12-29T18:05:44.618Z,6.57
2022-12-29T18:08:12.371Z,5.82
2022-12-29T18:10:39.951Z,6.78
2022-12-29T18:13:07.303Z,8.88
2022-12-29T18:18:11.686Z,8.13
2022-12-29T18:20:39.762Z,6.78
2022-12-29T18:23:07.311Z,7.30
2022-12-29T18:26:12.837Z,7.13
2022-12-29T18:28:40.283Z,8.75
2022-12-29T18:33:40.479Z,15.43
2022-12-29T18:36:11.138Z,15.18
2022-12-29T18:38:37.815Z,17.20
2022-12-29T18:41:04.913Z,15.20
2022-12-29T18:43:31.583Z,12.40
2022-12-29T18:45:58.301Z,7.47
2022-12-29T18:48:24.974Z,5.18
2022-12-29T18:50:53.194Z,6.47
2022-12-29T18:53:24.702Z,7.40
2022-12-29T18:55:52.431Z,7.95
2022-12-29T18:58:19.451Z,8.98
2022-12-29T19:00:46.812Z,10.75
2022-12-29T19:03:15.306Z,7.60
2022-12-29T19:05:43.839Z,7.03
2022-12-29T19:08:11.131Z,7.20
2022-12-29T19:10:38.705Z,7.13
2022-12-29T19:13:05.974Z,11.85
2022-12-29T19:15:39.794Z,23.85
2022-12-29T19:20:57.244Z,8.17
2022-12-29T19:23:25.450Z,6.85
2022-12-29T19:25:53.663Z,8.75
2022-12-29T19:28:22.267Z,8.85
2022-12-29T19:30:52.501Z,8.68
2022-12-29T19:33:23.475Z,8.38
2022-12-29T19:35:50.683Z,8.43
2022-12-29T19:38:18.021Z,7.40
2022-12-29T19:43:14.028Z,6.07
2022-12-29T19:45:42.301Z,7.97
2022-12-29T19:48:14.219Z,7.75
2022-12-29T19:50:41.037Z,5.85
2022-12-29T19:53:07.733Z,7.07
2022-12-29T19:55:34.435Z,4.25
2022-12-29T19:58:01.142Z,5.82
2022-12-29T20:00:27.863Z,6.60
2022-12-29T20:02:54.662Z,6.03
2022-12-29T20:05:21.419Z,9.18
2022-12-29T20:07:48.155Z,11.63
2022-12-29T20:10:14.926Z,14.30
2022-12-29T20:12:41.585Z,8.73
2022-12-29T20:15:10.730Z,6.63
2022-12-29T20:20:24.037Z,8.85
2022-12-29T20:22:50.745Z,8.70
2022-12-29T20:28:04.212Z,6.05
2022-12-29T20:30:30.931Z,3.35
2022-12-29T20:32:57.639Z,5.55
2022-12-29T20:35:24.356Z,5.65
2022-12-29T20:37:51.072Z,6.97
2022-12-29T20:40:17.784Z,5.97
2022-12-29T20:42:44.445Z,4.32
2022-12-29T20:45:11.217Z,3.38
2022-12-29T20:47:37.840Z,4.20
2022-12-29T20:50:04.771Z,4.43
2022-12-29T20:52:32.302Z,6.05
2022-12-29T20:54:58.974Z,4.72
2022-12-29T20:57:25.712Z,3.30
2022-12-29T20:59:52.567Z,4.15
2022-12-29T21:02:23.570Z,4.68
2022-12-29T21:05:22.586Z,4.78
2022-12-29T21:07:37.054Z,4.13
2022-12-29T21:10:04.092Z,3.58
2022-12-29T21:12:30.841Z,6.75
2022-12-29T21:14:57.489Z,4.32
2022-12-29T21:17:24.199Z,3.63
2022-12-29T21:19:50.905Z,5.53
2022-12-29T21:22:17.559Z,4.43
2022-12-29T21:24:44.206Z,6.05
2022-12-29T21:27:10.890Z,4.15
2022-12-29T21:29:37.527Z,6.35
2022-12-29T21:32:06.673Z,7.85
2022-12-29T21:34:34.863Z,9.40
2022-12-29T21:37:01.630Z,9.68
2022-12-29T21:39:28.616Z,10.35
2022-12-29T21:42:00.292Z,10.93
2022-12-29T21:44:45.823Z,10.30
2022-12-29T21:47:12.703Z,9.25
2022-12-29T21:49:39.379Z,7.88
2022-12-29T21:52:06.108Z,9.13
2022-12-29T21:54:51.202Z,8.38
2022-12-29T21:57:37.848Z,8.38
2022-12-29T22:00:27.937Z,9.50
2022-12-29T22:03:20.433Z,8.73
2022-12-29T22:06:08.946Z,8.95
2022-12-29T22:08:54.477Z,9.48
2022-12-29T22:11:40.076Z,11.15
2022-12-29T22:14:06.851Z,9.60
2022-12-29T22:16:33.528Z,10.05
2022-12-29T22:19:00.198Z,5.30
2022-12-29T22:21:26.930Z,5.63
2022-12-29T22:23:53.731Z,3.95
2022-12-29T22:26:20.440Z,4.03
2022-12-29T22:28:48.013Z,6.32
2022-12-29T22:34:00.996Z,7.50
2022-12-29T22:36:28.349Z,9.02
2022-12-29T22:41:22.266Z,6.53
2022-12-29T22:46:15.979Z,5.45
2022-12-29T22:48:42.689Z,5.22
2022-12-29T22:51:09.450Z,4.05
2022-12-29T22:53:36.132Z,4.88
2022-12-29T22:56:05.722Z,4.65
2022-12-29T22:58:32.494Z,6.57
2022-12-29T23:00:59.711Z,7.90
2022-12-29T23:03:26.936Z,7.80
2022-12-29T23:08:24.617Z,7.63
2022-12-29T23:10:51.327Z,8.45
2022-12-29T23:13:18.113Z,6.07
2022-12-29T23:15:45.032Z,9.68
2022-12-29T23:18:11.776Z,9.52
2022-12-29T23:20:38.985Z,8.95
2022-12-29T23:23:05.675Z,9.20
2022-12-29T23:25:34.903Z,9.85
2022-12-29T23:28:01.613Z,8.98
2022-12-29T23:30:28.268Z,8.20
2022-12-29T23:32:55.005Z,7.95
2022-12-29T23:35:21.708Z,7.68
2022-12-29T23:37:48.359Z,7.22
2022-12-29T23:40:15.066Z,7.20
2022-12-29T23:42:41.731Z,5.20
2022-12-29T23:45:10.114Z,4.68
2022-12-29T23:47:36.917Z,6.05
2022-12-29T23:50:03.858Z,3.90
2022-12-29T23:52:30.542Z,5.82
2022-12-29T23:54:57.327Z,7.15
2022-12-29T23:57:23.978Z,5.38
2022-12-29T23:59:50.615Z,4.80
